sensor_id;sensor_type;location;lat;lon;timestamp;P1;durP1;ratioP1;P2;durP2;ratioP2
19189;SDS011;9727;50.200;19.038;2022-08-19T00:01:52;12.55;;;10.20;;
19189;SDS011;9727;50.200;19.038;2022-08-19T00:04:22;14.95;;;10.98;;
19189;SDS011;9727;50.200;19.038;2022-08-19T00:06:49;13.02;;;10.45;;
19189;SDS011;9727;50.200;19.038;2022-08-19T00:09:17;14.63;;;10.98;;
19189;SDS011;9727;50.200;19.038;2022-08-19T00:11:44;14.40;;;11.07;;
19189;SDS011;9727;50.200;19.038;2022-08-19T00:14:11;15.55;;;11.45;;
19189;SDS011;9727;50.200;19.038;2022-08-19T00:16:41;12.38;;;10.98;;
19189;SDS011;9727;50.200;19.038;2022-08-19T00:19:08;11.65;;;10.30;;
19189;SDS011;9727;50.200;19.038;2022-08-19T00:21:36;15.57;;;11.50;;
19189;SDS011;9727;50.200;19.038;2022-08-19T00:24:04;13.27;;;11.18;;
19189;SDS011;9727;50.200;19.038;2022-08-19T00:26:31;13.15;;;11.00;;
19189;SDS011;9727;50.200;19.038;2022-08-19T00:28:58;13.77;;;11.77;;
19189;SDS011;9727;50.200;19.038;2022-08-19T00:31:25;14.25;;;11.48;;
19189;SDS011;9727;50.200;19.038;2022-08-19T00:33:53;12.88;;;11.38;;
19189;SDS011;9727;50.200;19.038;2022-08-19T00:36:19;12.63;;;11.05;;
19189;SDS011;9727;50.200;19.038;2022-08-19T00:38:50;14.77;;;11.73;;
19189;SDS011;9727;50.200;19.038;2022-08-19T00:41:18;17.70;;;12.00;;
19189;SDS011;9727;50.200;19.038;2022-08-19T00:43:56;14.93;;;11.48;;
19189;SDS011;9727;50.200;19.038;2022-08-19T00:46:23;15.32;;;11.55;;
19189;SDS011;9727;50.200;19.038;2022-08-19T00:48:50;13.65;;;11.75;;
19189;SDS011;9727;50.200;19.038;2022-08-19T00:51:16;13.43;;;11.52;;
19189;SDS011;9727;50.200;19.038;2022-08-19T00:53:42;14.02;;;11.50;;
19189;SDS011;9727;50.200;19.038;2022-08-19T00:56:11;14.15;;;12.60;;
19189;SDS011;9727;50.200;19.038;2022-08-19T00:58:37;15.35;;;11.43;;
19189;SDS011;9727;50.200;19.038;2022-08-19T01:01:05;14.57;;;12.02;;
19189;SDS011;9727;50.200;19.038;2022-08-19T01:03:32;16.50;;;12.70;;
19189;SDS011;9727;50.200;19.038;2022-08-19T01:05:59;14.77;;;12.40;;
19189;SDS011;9727;50.200;19.038;2022-08-19T01:08:26;15.05;;;12.27;;
19189;SDS011;9727;50.200;19.038;2022-08-19T01:10:53;16.45;;;13.25;;
19189;SDS011;9727;50.200;19.038;2022-08-19T01:13:23;19.17;;;12.80;;
19189;SDS011;9727;50.200;19.038;2022-08-19T01:15:51;12.80;;;11.50;;
19189;SDS011;9727;50.200;19.038;2022-08-19T01:18:18;14.32;;;12.20;;
19189;SDS011;9727;50.200;19.038;2022-08-19T01:20:45;16.15;;;12.52;;
19189;SDS011;9727;50.200;19.038;2022-08-19T01:23:13;13.95;;;12.45;;
19189;SDS011;9727;50.200;19.038;2022-08-19T01:25:41;15.55;;;12.57;;
19189;SDS011;9727;50.200;19.038;2022-08-19T01:28:13;16.10;;;12.18;;
19189;SDS011;9727;50.200;19.038;2022-08-19T01:30:40;17.55;;;12.88;;
19189;SDS011;9727;50.200;19.038;2022-08-19T01:33:06;15.20;;;12.55;;
19189;SDS011;9727;50.200;19.038;2022-08-19T01:35:33;13.77;;;12.30;;
19189;SDS011;9727;50.200;19.038;2022-08-19T01:38:02;14.32;;;12.77;;
19189;SDS011;9727;50.200;19.038;2022-08-19T01:40:32;14.30;;;12.75;;
19189;SDS011;9727;50.200;19.038;2022-08-19T01:43:00;14.65;;;12.85;;
19189;SDS011;9727;50.200;19.038;2022-08-19T01:45:27;17.73;;;13.25;;
19189;SDS011;9727;50.200;19.038;2022-08-19T01:47:54;15.10;;;12.88;;
19189;SDS011;9727;50.200;19.038;2022-08-19T01:50:20;15.77;;;13.38;;
19189;SDS011;9727;50.200;19.038;2022-08-19T01:52:50;16.73;;;13.57;;
19189;SDS011;9727;50.200;19.038;2022-08-19T01:55:17;16.15;;;13.25;;
19189;SDS011;9727;50.200;19.038;2022-08-19T01:57:46;15.05;;;13.25;;
19189;SDS011;9727;50.200;19.038;2022-08-19T02:00:16;14.77;;;13.18;;
19189;SDS011;9727;50.200;19.038;2022-08-19T02:02:43;16.10;;;13.48;;
19189;SDS011;9727;50.200;19.038;2022-08-19T02:05:10;15.07;;;13.45;;
19189;SDS011;9727;50.200;19.038;2022-08-19T02:07:37;18.10;;;12.93;;
19189;SDS011;9727;50.200;19.038;2022-08-19T02:10:05;14.38;;;12.90;;
19189;SDS011;9727;50.200;19.038;2022-08-19T02:12:33;18.45;;;13.52;;
19189;SDS011;9727;50.200;19.038;2022-08-19T02:15:02;16.75;;;13.23;;
19189;SDS011;9727;50.200;19.038;2022-08-19T02:17:29;14.82;;;13.32;;
19189;SDS011;9727;50.200;19.038;2022-08-19T02:19:56;15.95;;;13.30;;
19189;SDS011;9727;50.200;19.038;2022-08-19T02:22:23;16.20;;;13.60;;
19189;SDS011;9727;50.200;19.038;2022-08-19T02:24:50;18.63;;;13.65;;
19189;SDS011;9727;50.200;19.038;2022-08-19T02:27:16;16.08;;;13.20;;
19189;SDS011;9727;50.200;19.038;2022-08-19T02:29:44;16.20;;;12.98;;
19189;SDS011;9727;50.200;19.038;2022-08-19T02:32:13;15.65;;;13.32;;
19189;SDS011;9727;50.200;19.038;2022-08-19T02:34:39;14.82;;;13.30;;
19189;SDS011;9727;50.200;19.038;2022-08-19T02:37:06;16.88;;;13.30;;
19189;SDS011;9727;50.200;19.038;2022-08-19T02:39:53;17.90;;;14.25;;
19189;SDS011;9727;50.200;19.038;2022-08-19T02:42:18;16.05;;;13.30;;
19189;SDS011;9727;50.200;19.038;2022-08-19T02:44:45;15.82;;;13.77;;
19189;SDS011;9727;50.200;19.038;2022-08-19T02:47:13;16.38;;;12.73;;
19189;SDS011;9727;50.200;19.038;2022-08-19T02:49:40;14.73;;;13.18;;
19189;SDS011;9727;50.200;19.038;2022-08-19T02:52:06;19.00;;;13.75;;
19189;SDS011;9727;50.200;19.038;2022-08-19T02:54:33;15.25;;;13.68;;
19189;SDS011;9727;50.200;19.038;2022-08-19T02:56:59;16.83;;;12.98;;
19189;SDS011;9727;50.200;19.038;2022-08-19T02:59:29;17.95;;;13.93;;
19189;SDS011;9727;50.200;19.038;2022-08-19T03:01:55;17.80;;;13.32;;
19189;SDS011;9727;50.200;19.038;2022-08-19T03:04:23;17.38;;;13.63;;
19189;SDS011;9727;50.200;19.038;2022-08-19T03:06:50;15.93;;;13.32;;
19189;SDS011;9727;50.200;19.038;2022-08-19T03:09:17;15.90;;;13.48;;
19189;SDS011;9727;50.200;19.038;2022-08-19T03:11:44;16.33;;;13.77;;
19189;SDS011;9727;50.200;19.038;2022-08-19T03:14:11;17.75;;;13.30;;
19189;SDS011;9727;50.200;19.038;2022-08-19T03:16:40;14.88;;;12.48;;
19189;SDS011;9727;50.200;19.038;2022-08-19T03:19:07;16.02;;;13.63;;
19189;SDS011;9727;50.200;19.038;2022-08-19T03:21:35;16.10;;;12.52;;
19189;SDS011;9727;50.200;19.038;2022-08-19T03:24:02;13.55;;;12.15;;
19189;SDS011;9727;50.200;19.038;2022-08-19T03:26:29;16.35;;;13.18;;
19189;SDS011;9727;50.200;19.038;2022-08-19T03:28:56;17.15;;;12.27;;
19189;SDS011;9727;50.200;19.038;2022-08-19T03:31:23;13.73;;;12.32;;
19189;SDS011;9727;50.200;19.038;2022-08-19T03:33:51;15.05;;;13.45;;
19189;SDS011;9727;50.200;19.038;2022-08-19T03:36:19;16.52;;;12.63;;
19189;SDS011;9727;50.200;19.038;2022-08-19T03:38:52;16.10;;;13.40;;
19189;SDS011;9727;50.200;19.038;2022-08-19T03:41:20;15.68;;;12.82;;
19189;SDS011;9727;50.200;19.038;2022-08-19T03:43:50;18.60;;;13.30;;
19189;SDS011;9727;50.200;19.038;2022-08-19T03:46:17;14.57;;;13.10;;
19189;SDS011;9727;50.200;19.038;2022-08-19T03:48:46;15.90;;;14.27;;
19189;SDS011;9727;50.200;19.038;2022-08-19T03:51:18;19.88;;;14.13;;
19189;SDS011;9727;50.200;19.038;2022-08-19T03:53:46;14.68;;;12.65;;
19189;SDS011;9727;50.200;19.038;2022-08-19T03:56:17;18.10;;;13.27;;
19189;SDS011;9727;50.200;19.038;2022-08-19T03:58:43;17.08;;;13.23;;
19189;SDS011;9727;50.200;19.038;2022-08-19T04:01:10;15.45;;;13.05;;
19189;SDS011;9727;50.200;19.038;2022-08-19T04:03:39;15.90;;;12.52;;
19189;SDS011;9727;50.200;19.038;2022-08-19T04:06:09;20.67;;;13.82;;
19189;SDS011;9727;50.200;19.038;2022-08-19T04:08:38;14.73;;;13.20;;
19189;SDS011;9727;50.200;19.038;2022-08-19T04:11:06;14.07;;;12.57;;
19189;SDS011;9727;50.200;19.038;2022-08-19T04:13:34;18.58;;;13.32;;
19189;SDS011;9727;50.200;19.038;2022-08-19T04:16:00;15.52;;;13.57;;
19189;SDS011;9727;50.200;19.038;2022-08-19T04:18:27;15.55;;;12.82;;
19189;SDS011;9727;50.200;19.038;2022-08-19T04:20:54;16.05;;;13.25;;
19189;SDS011;9727;50.200;19.038;2022-08-19T04:23:22;15.27;;;12.85;;
19189;SDS011;9727;50.200;19.038;2022-08-19T04:25:49;15.13;;;13.63;;
19189;SDS011;9727;50.200;19.038;2022-08-19T04:28:16;15.88;;;12.80;;
19189;SDS011;9727;50.200;19.038;2022-08-19T04:30:45;15.43;;;12.55;;
19189;SDS011;9727;50.200;19.038;2022-08-19T04:33:13;16.58;;;12.73;;
19189;SDS011;9727;50.200;19.038;2022-08-19T04:35:41;16.33;;;11.68;;
19189;SDS011;9727;50.200;19.038;2022-08-19T04:38:08;13.27;;;11.88;;
19189;SDS011;9727;50.200;19.038;2022-08-19T04:40:39;14.63;;;12.55;;
19189;SDS011;9727;50.200;19.038;2022-08-19T04:43:23;16.92;;;12.13;;
19189;SDS011;9727;50.200;19.038;2022-08-19T04:45:51;13.15;;;11.73;;
19189;SDS011;9727;50.200;19.038;2022-08-19T04:48:17;19.10;;;11.85;;
19189;SDS011;9727;50.200;19.038;2022-08-19T04:50:51;15.70;;;11.85;;
19189;SDS011;9727;50.200;19.038;2022-08-19T04:53:22;15.38;;;12.05;;
19189;SDS011;9727;50.200;19.038;2022-08-19T04:55:50;17.27;;;12.68;;
19189;SDS011;9727;50.200;19.038;2022-08-19T04:58:17;13.85;;;11.38;;
19189;SDS011;9727;50.200;19.038;2022-08-19T05:00:44;12.98;;;11.60;;
19189;SDS011;9727;50.200;19.038;2022-08-19T05:03:12;13.15;;;11.13;;
19189;SDS011;9727;50.200;19.038;2022-08-19T05:05:42;13.80;;;11.27;;
19189;SDS011;9727;50.200;19.038;2022-08-19T05:08:08;13.80;;;11.50;;
19189;SDS011;9727;50.200;19.038;2022-08-19T05:10:35;14.63;;;11.48;;
19189;SDS011;9727;50.200;19.038;2022-08-19T05:13:02;15.90;;;12.07;;
19189;SDS011;9727;50.200;19.038;2022-08-19T05:15:29;12.60;;;10.57;;
19189;SDS011;9727;50.200;19.038;2022-08-19T05:17:55;13.05;;;11.68;;
19189;SDS011;9727;50.200;19.038;2022-08-19T05:20:41;14.00;;;11.57;;
19189;SDS011;9727;50.200;19.038;2022-08-19T05:23:25;14.60;;;11.95;;
19189;SDS011;9727;50.200;19.038;2022-08-19T05:25:51;13.90;;;11.65;;
19189;SDS011;9727;50.200;19.038;2022-08-19T05:28:18;16.00;;;11.25;;
19189;SDS011;9727;50.200;19.038;2022-08-19T05:30:45;13.95;;;11.85;;
19189;SDS011;9727;50.200;19.038;2022-08-19T05:33:14;15.20;;;11.57;;
19189;SDS011;9727;50.200;19.038;2022-08-19T05:35:42;13.27;;;11.80;;
19189;SDS011;9727;50.200;19.038;2022-08-19T05:38:09;14.93;;;11.23;;
19189;SDS011;9727;50.200;19.038;2022-08-19T05:40:36;15.15;;;11.38;;
19189;SDS011;9727;50.200;19.038;2022-08-19T05:43:04;15.75;;;11.68;;
19189;SDS011;9727;50.200;19.038;2022-08-19T05:45:30;13.85;;;11.30;;
19189;SDS011;9727;50.200;19.038;2022-08-19T05:47:57;11.88;;;10.60;;
19189;SDS011;9727;50.200;19.038;2022-08-19T05:50:24;13.57;;;11.30;;
19189;SDS011;9727;50.200;19.038;2022-08-19T05:52:52;14.45;;;11.70;;
19189;SDS011;9727;50.200;19.038;2022-08-19T05:55:19;14.82;;;11.85;;
19189;SDS011;9727;50.200;19.038;2022-08-19T05:57:50;16.05;;;11.77;;
19189;SDS011;9727;50.200;19.038;2022-08-19T06:00:16;13.63;;;11.98;;
19189;SDS011;9727;50.200;19.038;2022-08-19T06:02:43;14.32;;;11.15;;
19189;SDS011;9727;50.200;19.038;2022-08-19T06:05:10;13.38;;;11.80;;
19189;SDS011;9727;50.200;19.038;2022-08-19T06:07:36;13.40;;;10.85;;
19189;SDS011;9727;50.200;19.038;2022-08-19T06:10:06;12.70;;;11.20;;
19189;SDS011;9727;50.200;19.038;2022-08-19T06:12:33;12.73;;;10.93;;
19189;SDS011;9727;50.200;19.038;2022-08-19T06:15:02;12.52;;;10.85;;
19189;SDS011;9727;50.200;19.038;2022-08-19T06:17:29;13.98;;;10.60;;
19189;SDS011;9727;50.200;19.038;2022-08-19T06:19:56;16.15;;;11.02;;
19189;SDS011;9727;50.200;19.038;2022-08-19T06:22:23;12.75;;;10.90;;
19189;SDS011;9727;50.200;19.038;2022-08-19T06:24:50;15.65;;;10.93;;
19189;SDS011;9727;50.200;19.038;2022-08-19T06:27:19;15.02;;;12.23;;
19189;SDS011;9727;50.200;19.038;2022-08-19T06:29:46;13.90;;;10.77;;
19189;SDS011;9727;50.200;19.038;2022-08-19T06:32:15;14.00;;;10.05;;
19189;SDS011;9727;50.200;19.038;2022-08-19T06:34:42;15.85;;;11.23;;
19189;SDS011;9727;50.200;19.038;2022-08-19T06:37:10;13.55;;;10.90;;
19189;SDS011;9727;50.200;19.038;2022-08-19T06:39:37;14.90;;;11.57;;
19189;SDS011;9727;50.200;19.038;2022-08-19T06:42:05;18.42;;;11.80;;
19189;SDS011;9727;50.200;19.038;2022-08-19T06:44:35;16.35;;;10.88;;
19189;SDS011;9727;50.200;19.038;2022-08-19T06:47:02;15.65;;;11.07;;
19189;SDS011;9727;50.200;19.038;2022-08-19T06:49:29;15.57;;;11.30;;
19189;SDS011;9727;50.200;19.038;2022-08-19T06:51:56;15.85;;;11.32;;
19189;SDS011;9727;50.200;19.038;2022-08-19T06:54:23;13.80;;;11.02;;
19189;SDS011;9727;50.200;19.038;2022-08-19T06:56:50;15.82;;;12.10;;
19189;SDS011;9727;50.200;19.038;2022-08-19T06:59:18;13.52;;;10.75;;
19189;SDS011;9727;50.200;19.038;2022-08-19T07:01:47;16.38;;;11.07;;
19189;SDS011;9727;50.200;19.038;2022-08-19T07:04:18;16.30;;;11.25;;
19189;SDS011;9727;50.200;19.038;2022-08-19T07:06:45;14.82;;;10.70;;
19189;SDS011;9727;50.200;19.038;2022-08-19T07:09:12;13.45;;;11.65;;
19189;SDS011;9727;50.200;19.038;2022-08-19T07:11:43;16.38;;;10.75;;
19189;SDS011;9727;50.200;19.038;2022-08-19T07:14:10;15.00;;;11.40;;
19189;SDS011;9727;50.200;19.038;2022-08-19T07:16:37;12.35;;;10.63;;
19189;SDS011;9727;50.200;19.038;2022-08-19T07:19:05;11.63;;;10.43;;
19189;SDS011;9727;50.200;19.038;2022-08-19T07:21:32;13.50;;;10.55;;
19189;SDS011;9727;50.200;19.038;2022-08-19T07:23:59;17.33;;;11.82;;
19189;SDS011;9727;50.200;19.038;2022-08-19T07:26:27;18.83;;;11.95;;
19189;SDS011;9727;50.200;19.038;2022-08-19T07:28:54;12.52;;;11.18;;
19189;SDS011;9727;50.200;19.038;2022-08-19T07:31:22;12.18;;;10.98;;
19189;SDS011;9727;50.200;19.038;2022-08-19T07:33:51;17.23;;;11.77;;
19189;SDS011;9727;50.200;19.038;2022-08-19T07:36:20;15.00;;;11.35;;
19189;SDS011;9727;50.200;19.038;2022-08-19T07:38:51;13.55;;;11.80;;
19189;SDS011;9727;50.200;19.038;2022-08-19T07:41:20;16.77;;;11.93;;
19189;SDS011;9727;50.200;19.038;2022-08-19T07:43:50;14.48;;;12.02;;
19189;SDS011;9727;50.200;19.038;2022-08-19T07:46:18;13.23;;;11.82;;
19189;SDS011;9727;50.200;19.038;2022-08-19T07:48:45;18.38;;;12.63;;
19189;SDS011;9727;50.200;19.038;2022-08-19T07:51:15;13.88;;;12.13;;
19189;SDS011;9727;50.200;19.038;2022-08-19T07:53:43;14.60;;;12.15;;
19189;SDS011;9727;50.200;19.038;2022-08-19T07:56:11;16.15;;;11.68;;
19189;SDS011;9727;50.200;19.038;2022-08-19T07:58:40;14.00;;;11.85;;
19189;SDS011;9727;50.200;19.038;2022-08-19T08:01:08;14.00;;;11.32;;
19189;SDS011;9727;50.200;19.038;2022-08-19T08:03:36;14.40;;;11.50;;
19189;SDS011;9727;50.200;19.038;2022-08-19T08:06:19;15.02;;;11.95;;
19189;SDS011;9727;50.200;19.038;2022-08-19T08:09:04;15.27;;;11.95;;
19189;SDS011;9727;50.200;19.038;2022-08-19T08:11:37;13.20;;;11.77;;
19189;SDS011;9727;50.200;19.038;2022-08-19T08:14:04;14.25;;;11.18;;
19189;SDS011;9727;50.200;19.038;2022-08-19T08:16:33;12.95;;;11.02;;
19189;SDS011;9727;50.200;19.038;2022-08-19T08:18:59;14.50;;;11.65;;
19189;SDS011;9727;50.200;19.038;2022-08-19T08:21:26;14.88;;;11.77;;
19189;SDS011;9727;50.200;19.038;2022-08-19T08:23:52;13.80;;;12.23;;
19189;SDS011;9727;50.200;19.038;2022-08-19T08:26:21;15.52;;;11.38;;
19189;SDS011;9727;50.200;19.038;2022-08-19T08:28:49;19.33;;;12.35;;
19189;SDS011;9727;50.200;19.038;2022-08-19T08:31:16;12.38;;;10.98;;
19189;SDS011;9727;50.200;19.038;2022-08-19T08:33:43;12.82;;;11.23;;
19189;SDS011;9727;50.200;19.038;2022-08-19T08:36:10;12.93;;;11.20;;
19189;SDS011;9727;50.200;19.038;2022-08-19T08:38:38;18.83;;;10.95;;
19189;SDS011;9727;50.200;19.038;2022-08-19T08:41:07;18.25;;;11.60;;
19189;SDS011;9727;50.200;19.038;2022-08-19T08:43:37;15.77;;;11.00;;
19189;SDS011;9727;50.200;19.038;2022-08-19T08:46:07;13.77;;;10.90;;
19189;SDS011;9727;50.200;19.038;2022-08-19T08:48:36;12.30;;;10.45;;
19189;SDS011;9727;50.200;19.038;2022-08-19T08:51:05;11.00;;;9.93;;
19189;SDS011;9727;50.200;19.038;2022-08-19T08:53:33;12.68;;;10.55;;
19189;SDS011;9727;50.200;19.038;2022-08-19T08:56:00;11.75;;;10.50;;
19189;SDS011;9727;50.200;19.038;2022-08-19T08:58:28;11.18;;;10.07;;
19189;SDS011;9727;50.200;19.038;2022-08-19T09:00:59;13.88;;;10.48;;
19189;SDS011;9727;50.200;19.038;2022-08-19T09:03:26;12.63;;;9.82;;
19189;SDS011;9727;50.200;19.038;2022-08-19T09:05:56;11.50;;;9.68;;
19189;SDS011;9727;50.200;19.038;2022-08-19T09:08:29;13.77;;;9.73;;
19189;SDS011;9727;50.200;19.038;2022-08-19T09:10:59;12.75;;;9.75;;
19189;SDS011;9727;50.200;19.038;2022-08-19T09:13:28;13.40;;;9.75;;
19189;SDS011;9727;50.200;19.038;2022-08-19T09:16:00;12.82;;;10.18;;
19189;SDS011;9727;50.200;19.038;2022-08-19T09:18:37;10.48;;;9.25;;
19189;SDS011;9727;50.200;19.038;2022-08-19T09:21:04;14.80;;;10.30;;
19189;SDS011;9727;50.200;19.038;2022-08-19T09:23:31;13.30;;;9.52;;
19189;SDS011;9727;50.200;19.038;2022-08-19T09:25:57;9.45;;;8.45;;
19189;SDS011;9727;50.200;19.038;2022-08-19T09:28:24;13.15;;;9.10;;
19189;SDS011;9727;50.200;19.038;2022-08-19T09:30:50;10.95;;;8.55;;
19189;SDS011;9727;50.200;19.038;2022-08-19T09:33:19;12.80;;;8.77;;
19189;SDS011;9727;50.200;19.038;2022-08-19T09:35:45;10.65;;;8.50;;
19189;SDS011;9727;50.200;19.038;2022-08-19T09:38:15;11.93;;;8.68;;
19189;SDS011;9727;50.200;19.038;2022-08-19T09:40:41;12.50;;;8.52;;
19189;SDS011;9727;50.200;19.038;2022-08-19T09:43:08;15.35;;;8.52;;
19189;SDS011;9727;50.200;19.038;2022-08-19T09:45:35;14.43;;;8.70;;
19189;SDS011;9727;50.200;19.038;2022-08-19T09:48:02;10.02;;;8.32;;
19189;SDS011;9727;50.200;19.038;2022-08-19T09:50:30;13.05;;;8.98;;
19189;SDS011;9727;50.200;19.038;2022-08-19T09:52:59;11.63;;;8.63;;
19189;SDS011;9727;50.200;19.038;2022-08-19T09:55:25;11.77;;;8.35;;
19189;SDS011;9727;50.200;19.038;2022-08-19T09:57:53;9.32;;;8.43;;
19189;SDS011;9727;50.200;19.038;2022-08-19T10:00:19;11.55;;;8.40;;
19189;SDS011;9727;50.200;19.038;2022-08-19T10:02:46;9.52;;;7.90;;
19189;SDS011;9727;50.200;19.038;2022-08-19T10:05:15;10.90;;;8.40;;
19189;SDS011;9727;50.200;19.038;2022-08-19T10:08:01;10.30;;;8.57;;
19189;SDS011;9727;50.200;19.038;2022-08-19T10:10:27;10.77;;;8.38;;
19189;SDS011;9727;50.200;19.038;2022-08-19T10:12:54;12.05;;;8.18;;
19189;SDS011;9727;50.200;19.038;2022-08-19T10:15:21;10.68;;;7.90;;
19189;SDS011;9727;50.200;19.038;2022-08-19T10:17:49;10.55;;;8.10;;
19189;SDS011;9727;50.200;19.038;2022-08-19T10:20:16;12.32;;;8.23;;
19189;SDS011;9727;50.200;19.038;2022-08-19T10:22:43;9.35;;;7.50;;
19189;SDS011;9727;50.200;19.038;2022-08-19T10:25:11;10.10;;;8.40;;
19189;SDS011;9727;50.200;19.038;2022-08-19T10:27:41;11.05;;;8.25;;
19189;SDS011;9727;50.200;19.038;2022-08-19T10:30:08;12.80;;;8.35;;
19189;SDS011;9727;50.200;19.038;2022-08-19T10:32:35;13.38;;;7.93;;
19189;SDS011;9727;50.200;19.038;2022-08-19T10:35:02;10.20;;;8.55;;
19189;SDS011;9727;50.200;19.038;2022-08-19T10:37:30;12.55;;;8.10;;
19189;SDS011;9727;50.200;19.038;2022-08-19T10:39:57;10.13;;;7.35;;
19189;SDS011;9727;50.200;19.038;2022-08-19T10:42:25;13.40;;;7.85;;
19189;SDS011;9727;50.200;19.038;2022-08-19T10:44:52;13.27;;;8.07;;
19189;SDS011;9727;50.200;19.038;2022-08-19T10:47:18;17.38;;;8.38;;
19189;SDS011;9727;50.200;19.038;2022-08-19T10:49:45;15.50;;;7.60;;
19189;SDS011;9727;50.200;19.038;2022-08-19T10:52:34;10.52;;;8.30;;
19189;SDS011;9727;50.200;19.038;2022-08-19T10:55:02;12.85;;;7.35;;
19189;SDS011;9727;50.200;19.038;2022-08-19T10:57:51;9.82;;;7.38;;
19189;SDS011;9727;50.200;19.038;2022-08-19T11:00:18;14.80;;;7.43;;
19189;SDS011;9727;50.200;19.038;2022-08-19T11:02:45;15.30;;;7.68;;
19189;SDS011;9727;50.200;19.038;2022-08-19T11:05:12;11.30;;;7.63;;
19189;SDS011;9727;50.200;19.038;2022-08-19T11:07:39;11.15;;;7.72;;
19189;SDS011;9727;50.200;19.038;2022-08-19T11:10:08;9.82;;;7.03;;
19189;SDS011;9727;50.200;19.038;2022-08-19T11:12:36;13.82;;;7.03;;
19189;SDS011;9727;50.200;19.038;2022-08-19T11:15:06;11.60;;;7.80;;
19189;SDS011;9727;50.200;19.038;2022-08-19T11:17:35;15.25;;;7.43;;
19189;SDS011;9727;50.200;19.038;2022-08-19T11:20:06;12.73;;;7.25;;
19189;SDS011;9727;50.200;19.038;2022-08-19T11:22:33;8.57;;;7.05;;
19189;SDS011;9727;50.200;19.038;2022-08-19T11:25:00;10.50;;;6.80;;
19189;SDS011;9727;50.200;19.038;2022-08-19T11:27:27;15.20;;;7.07;;
19189;SDS011;9727;50.200;19.038;2022-08-19T11:29:54;9.63;;;6.63;;
19189;SDS011;9727;50.200;19.038;2022-08-19T11:32:22;8.48;;;6.38;;
19189;SDS011;9727;50.200;19.038;2022-08-19T11:34:49;9.90;;;6.60;;
19189;SDS011;9727;50.200;19.038;2022-08-19T11:37:16;8.13;;;6.60;;
19189;SDS011;9727;50.200;19.038;2022-08-19T11:39:45;9.25;;;6.80;;
19189;SDS011;9727;50.200;19.038;2022-08-19T11:42:12;12.25;;;7.65;;
19189;SDS011;9727;50.200;19.038;2022-08-19T11:44:55;11.15;;;6.57;;
19189;SDS011;9727;50.200;19.038;2022-08-19T11:47:24;12.77;;;7.25;;
19189;SDS011;9727;50.200;19.038;2022-08-19T11:49:51;12.70;;;7.15;;
19189;SDS011;9727;50.200;19.038;2022-08-19T11:52:18;11.10;;;6.85;;
19189;SDS011;9727;50.200;19.038;2022-08-19T11:54:45;7.47;;;6.63;;
19189;SDS011;9727;50.200;19.038;2022-08-19T11:57:11;8.73;;;6.88;;
19189;SDS011;9727;50.200;19.038;2022-08-19T11:59:39;9.98;;;6.32;;
19189;SDS011;9727;50.200;19.038;2022-08-19T12:02:06;10.13;;;6.78;;
19189;SDS011;9727;50.200;19.038;2022-08-19T12:04:34;11.90;;;7.35;;
19189;SDS011;9727;50.200;19.038;2022-08-19T12:07:00;11.68;;;7.43;;
19189;SDS011;9727;50.200;19.038;2022-08-19T12:09:27;15.30;;;6.85;;
19189;SDS011;9727;50.200;19.038;2022-08-19T12:11:53;10.15;;;6.70;;
19189;SDS011;9727;50.200;19.038;2022-08-19T12:14:20;12.02;;;7.20;;
19189;SDS011;9727;50.200;19.038;2022-08-19T12:16:47;9.05;;;7.00;;
19189;SDS011;9727;50.200;19.038;2022-08-19T12:19:16;10.68;;;6.68;;
19189;SDS011;9727;50.200;19.038;2022-08-19T12:21:44;8.90;;;5.90;;
19189;SDS011;9727;50.200;19.038;2022-08-19T12:24:11;9.05;;;6.28;;
19189;SDS011;9727;50.200;19.038;2022-08-19T12:26:39;10.48;;;6.82;;
19189;SDS011;9727;50.200;19.038;2022-08-19T12:29:06;10.30;;;6.45;;
19189;SDS011;9727;50.200;19.038;2022-08-19T12:31:34;8.63;;;6.70;;
19189;SDS011;9727;50.200;19.038;2022-08-19T12:34:00;12.05;;;7.00;;
19189;SDS011;9727;50.200;19.038;2022-08-19T12:36:27;7.60;;;6.47;;
19189;SDS011;9727;50.200;19.038;2022-08-19T12:38:57;8.80;;;6.85;;
19189;SDS011;9727;50.200;19.038;2022-08-19T12:41:24;14.93;;;7.43;;
19189;SDS011;9727;50.200;19.038;2022-08-19T12:43:51;9.02;;;6.65;;
19189;SDS011;9727;50.200;19.038;2022-08-19T12:46:18;10.75;;;6.95;;
19189;SDS011;9727;50.200;19.038;2022-08-19T12:48:44;13.23;;;6.82;;
19189;SDS011;9727;50.200;19.038;2022-08-19T12:51:12;12.57;;;6.90;;
19189;SDS011;9727;50.200;19.038;2022-08-19T12:53:39;11.52;;;6.93;;
19189;SDS011;9727;50.200;19.038;2022-08-19T12:56:08;9.27;;;6.45;;
19189;SDS011;9727;50.200;19.038;2022-08-19T12:58:35;12.77;;;7.15;;
19189;SDS011;9727;50.200;19.038;2022-08-19T13:01:05;9.25;;;6.35;;
19189;SDS011;9727;50.200;19.038;2022-08-19T13:03:35;13.27;;;6.63;;
19189;SDS011;9727;50.200;19.038;2022-08-19T13:06:02;9.98;;;6.00;;
19189;SDS011;9727;50.200;19.038;2022-08-19T13:08:28;12.68;;;6.68;;
19189;SDS011;9727;50.200;19.038;2022-08-19T13:10:55;8.80;;;6.55;;
19189;SDS011;9727;50.200;19.038;2022-08-19T13:13:24;11.05;;;6.50;;
19189;SDS011;9727;50.200;19.038;2022-08-19T13:15:51;10.73;;;6.80;;
19189;SDS011;9727;50.200;19.038;2022-08-19T13:18:18;12.25;;;6.70;;
19189;SDS011;9727;50.200;19.038;2022-08-19T13:20:51;13.50;;;7.10;;
19189;SDS011;9727;50.200;19.038;2022-08-19T13:23:21;7.55;;;6.68;;
19189;SDS011;9727;50.200;19.038;2022-08-19T13:25:55;10.48;;;7.25;;
19189;SDS011;9727;50.200;19.038;2022-08-19T13:28:22;11.77;;;6.65;;
19189;SDS011;9727;50.200;19.038;2022-08-19T13:31:19;12.73;;;6.95;;
19189;SDS011;9727;50.200;19.038;2022-08-19T13:34:04;11.05;;;6.95;;
19189;SDS011;9727;50.200;19.038;2022-08-19T13:36:30;15.75;;;8.43;;
19189;SDS011;9727;50.200;19.038;2022-08-19T13:38:57;13.20;;;9.23;;
19189;SDS011;9727;50.200;19.038;2022-08-19T13:41:24;12.65;;;7.97;;
19189;SDS011;9727;50.200;19.038;2022-08-19T13:43:52;10.75;;;7.45;;
19189;SDS011;9727;50.200;19.038;2022-08-19T13:46:20;16.10;;;7.60;;
19189;SDS011;9727;50.200;19.038;2022-08-19T13:48:53;9.73;;;6.70;;
19189;SDS011;9727;50.200;19.038;2022-08-19T13:51:20;12.43;;;7.25;;
19189;SDS011;9727;50.200;19.038;2022-08-19T13:53:46;13.55;;;6.50;;
19189;SDS011;9727;50.200;19.038;2022-08-19T13:56:16;14.32;;;7.20;;
19189;SDS011;9727;50.200;19.038;2022-08-19T13:58:44;16.60;;;7.10;;
19189;SDS011;9727;50.200;19.038;2022-08-19T14:01:11;9.27;;;6.72;;
19189;SDS011;9727;50.200;19.038;2022-08-19T14:03:50;11.02;;;7.43;;
19189;SDS011;9727;50.200;19.038;2022-08-19T14:06:18;11.73;;;6.65;;
19189;SDS011;9727;50.200;19.038;2022-08-19T14:08:44;13.13;;;6.97;;
19189;SDS011;9727;50.200;19.038;2022-08-19T14:11:11;11.32;;;6.40;;
19189;SDS011;9727;50.200;19.038;2022-08-19T14:13:37;10.10;;;7.15;;
19189;SDS011;9727;50.200;19.038;2022-08-19T14:16:06;11.27;;;6.70;;
19189;SDS011;9727;50.200;19.038;2022-08-19T14:18:32;10.05;;;6.65;;
19189;SDS011;9727;50.200;19.038;2022-08-19T14:21:00;13.13;;;7.50;;
19189;SDS011;9727;50.200;19.038;2022-08-19T14:23:28;12.63;;;6.80;;
19189;SDS011;9727;50.200;19.038;2022-08-19T14:26:02;12.15;;;6.57;;
19189;SDS011;9727;50.200;19.038;2022-08-19T14:28:29;9.90;;;6.47;;
19189;SDS011;9727;50.200;19.038;2022-08-19T14:30:55;11.60;;;6.95;;
19189;SDS011;9727;50.200;19.038;2022-08-19T14:33:22;12.20;;;6.60;;
19189;SDS011;9727;50.200;19.038;2022-08-19T14:35:49;13.27;;;6.80;;